Time;durP1;ratioP1;P1;durP2;ratioP2;P2;SDS_P1;SDS_P2;PMS_P1;PMS_P2;Temp;Humidity;BMP_temperature;BMP_pressure;BME280_temperature;BME280_humidity;BME280_pressure;Samples;Min_cycle;Max_cycle;Signal;HPM_P1;HPM_P2
2023/10/31 00:01:35;;;;;;;18.75;12.07;;;10.50;99.90;;;;;;4885559;29;20737;-81
2023/10/31 00:04:01;;;;;;;15.65;11.52;;;10.50;99.90;;;;;;4885842;29;20123;-82
2023/10/31 00:06:26;;;;;;;21.17;13.15;;;10.50;99.90;;;;;;4901464;29;20044;-82
2023/10/31 00:08:52;;;;;;;12.60;11.30;;;10.50;99.90;;;;;;4922204;29;20043;-81
2023/10/31 00:11:17;;;;;;;12.00;8.27;;;10.50;99.90;;;;;;4914519;29;20055;-81
2023/10/31 00:13:43;;;;;;;9.23;7.22;;;10.50;99.90;;;;;;4926295;29;20044;-82
2023/10/31 00:16:08;;;;;;;5.85;5.20;;;10.50;99.90;;;;;;4919932;29;20127;-82
2023/10/31 00:18:34;;;;;;;7.35;5.10;;;10.40;99.90;;;;;;4903939;29;20041;-81
2023/10/31 00:21:00;;;;;;;5.80;4.75;;;10.40;99.90;;;;;;4902592;29;20032;-81
2023/10/31 00:23:25;;;;;;;7.00;5.15;;;10.40;99.90;;;;;;4896250;29;20048;-82
2023/10/31 00:25:51;;;;;;;5.32;4.18;;;10.40;99.90;;;;;;4912174;29;20044;-81
2023/10/31 00:28:16;;;;;;;5.18;4.35;;;10.40;99.90;;;;;;4903055;29;20127;-81
2023/10/31 00:30:42;;;;;;;5.32;4.00;;;10.30;99.90;;;;;;4904410;29;20033;-81
2023/10/31 00:33:07;;;;;;;7.43;4.15;;;10.30;99.90;;;;;;4893831;29;20040;-82
2023/10/31 00:35:33;;;;;;;16.58;5.10;;;10.20;99.90;;;;;;4909363;29;20551;-82
2023/10/31 00:37:59;;;;;;;5.85;4.28;;;10.20;99.90;;;;;;4886822;29;20076;-82
2023/10/31 00:40:24;;;;;;;10.65;5.05;;;10.20;99.90;;;;;;4903518;29;20404;-82
2023/10/31 00:42:50;;;;;;;31.75;10.77;;;10.20;99.90;;;;;;4903278;29;20040;-82
2023/10/31 00:45:15;;;;;;;19.48;13.05;;;10.20;99.90;;;;;;4902676;29;20047;-82
2023/10/31 00:47:41;;;;;;;19.98;9.70;;;10.20;99.90;;;;;;4905681;29;20044;-82
2023/10/31 00:50:07;;;;;;;14.95;7.55;;;10.20;99.90;;;;;;4883881;29;20578;-82
2023/10/31 00:52:33;;;;;;;17.00;7.63;;;10.10;99.90;;;;;;4896904;29;20048;-82
2023/10/31 00:54:59;;;;;;;15.23;9.50;;;10.10;99.90;;;;;;4912406;29;20040;-81
2023/10/31 00:57:24;;;;;;;9.57;6.28;;;10.10;99.90;;;;;;4902375;29;20040;-81
2023/10/31 00:59:50;;;;;;;12.73;8.98;;;10.00;99.90;;;;;;4892861;29;20040;-81
2023/10/31 01:02:15;;;;;;;7.90;5.80;;;9.90;99.90;;;;;;4883811;29;20044;-82
2023/10/31 01:04:42;;;;;;;14.85;7.95;;;9.90;99.90;;;;;;4913218;29;20052;-81
2023/10/31 01:07:11;;;;;;;9.70;4.07;;;9.80;99.90;;;;;;4906889;29;20047;-81
2023/10/31 01:09:37;;;;;;;7.50;3.10;;;9.70;99.90;;;;;;4918092;29;20407;-82
2023/10/31 01:12:02;;;;;;;7.47;3.85;;;9.60;99.90;;;;;;4903957;29;20050;-81
2023/10/31 01:14:28;;;;;;;12.27;6.90;;;9.50;99.90;;;;;;4905947;29;20131;-82
2023/10/31 01:16:53;;;;;;;19.63;13.50;;;9.50;99.90;;;;;;4924311;29;20644;-82
2023/10/31 01:19:19;;;;;;;9.30;7.85;;;9.50;99.90;;;;;;4909410;29;20475;-81
2023/10/31 01:21:44;;;;;;;9.30;5.15;;;9.40;99.90;;;;;;4932958;29;20058;-82
2023/10/31 01:24:10;;;;;;;9.00;4.22;;;9.40;99.90;;;;;;4933100;29;20107;-81
2023/10/31 01:26:36;;;;;;;20.63;7.00;;;9.40;99.90;;;;;;4922459;29;20096;-81
2023/10/31 01:29:01;;;;;;;21.48;8.55;;;9.40;99.90;;;;;;4921002;29;20036;-81
2023/10/31 01:31:28;;;;;;;11.60;4.88;;;9.40;99.90;;;;;;4906798;29;20444;-82
2023/10/31 01:33:53;;;;;;;25.25;6.63;;;9.40;99.90;;;;;;4916992;29;20052;-81
2023/10/31 01:36:19;;;;;;;27.30;6.97;;;9.40;99.90;;;;;;4903468;29;20403;-81
2023/10/31 01:38:46;;;;;;;7.43;3.53;;;9.50;99.90;;;;;;4916765;29;20204;-82
2023/10/31 01:41:12;;;;;;;13.15;4.28;;;9.50;99.90;;;;;;4916730;29;20486;-82
2023/10/31 01:43:38;;;;;;;13.48;4.30;;;9.50;99.90;;;;;;4932955;29;20098;-82
2023/10/31 01:46:04;;;;;;;14.77;4.63;;;9.50;99.90;;;;;;4912213;29;20047;-82
2023/10/31 01:48:32;;;;;;;24.45;5.95;;;9.50;99.90;;;;;;4904591;29;20048;-82
2023/10/31 01:50:59;;;;;;;9.05;3.22;;;9.50;99.90;;;;;;4920054;29;20044;-82
2023/10/31 01:53:26;;;;;;;7.93;2.53;;;9.40;99.90;;;;;;4892575;29;20440;-82
2023/10/31 01:55:55;;;;;;;7.72;2.28;;;9.50;99.90;;;;;;4880592;29;20048;-82
2023/10/31 01:58:26;;;;;;;11.00;2.95;;;9.40;99.90;;;;;;4905105;29;20114;-82
2023/10/31 02:00:52;;;;;;;11.63;2.97;;;9.40;99.90;;;;;;4886783;29;20037;-82
2023/10/31 02:03:18;;;;;;;10.15;3.03;;;9.40;99.90;;;;;;4901175;29;20507;-82
2023/10/31 02:05:43;;;;;;;15.90;3.60;;;9.40;99.90;;;;;;4906876;29;20040;-82
2023/10/31 02:08:09;;;;;;;13.93;3.70;;;9.40;99.90;;;;;;4903558;29;20044;-82
2023/10/31 02:10:35;;;;;;;19.25;5.72;;;9.40;99.90;;;;;;4899705;29;20156;-82
2023/10/31 02:13:14;;;;;;;10.80;6.03;;;9.40;99.90;;;;;;4916536;29;20036;-82
2023/10/31 02:15:40;;;;;;;27.30;8.43;;;9.40;99.90;;;;;;4905366;29;20086;-82
2023/10/31 02:18:06;;;;;;;29.08;9.48;;;9.40;99.90;;;;;;4889371;29;20080;-82
2023/10/31 02:20:32;;;;;;;30.73;10.18;;;9.40;99.90;;;;;;4914546;29;20120;-82
2023/10/31 02:22:58;;;;;;;38.95;10.90;;;9.40;99.90;;;;;;4916075;29;20119;-82
2023/10/31 02:25:24;;;;;;;28.13;10.38;;;9.40;99.90;;;;;;4915972;29;20096;-81
2023/10/31 02:27:49;;;;;;;45.03;11.60;;;9.40;99.90;;;;;;4915915;29;20491;-81
2023/10/31 02:30:15;;;;;;;33.05;9.98;;;9.40;99.90;;;;;;4925136;29;20041;-82
2023/10/31 02:32:41;;;;;;;17.60;8.23;;;9.40;99.90;;;;;;4915656;29;20492;-82
2023/10/31 02:35:08;;;;;;;37.58;10.48;;;9.50;99.90;;;;;;4899917;29;20036;-82
2023/10/31 02:37:34;;;;;;;20.95;9.25;;;9.50;99.90;;;;;;4900290;29;20041;-82
2023/10/31 02:40:00;;;;;;;43.67;12.30;;;9.50;99.90;;;;;;4891622;29;20628;-81
2023/10/31 02:42:26;;;;;;;27.13;10.27;;;9.50;99.90;;;;;;4893716;29;20040;-81
2023/10/31 02:44:52;;;;;;;38.35;13.57;;;9.50;99.90;;;;;;4897576;29;20587;-82
2023/10/31 02:47:17;;;;;;;44.75;14.27;;;9.50;99.90;;;;;;4892728;29;20246;-82
2023/10/31 02:49:43;;;;;;;51.83;15.05;;;9.60;99.90;;;;;;4915525;29;20081;-82
2023/10/31 02:52:08;;;;;;;20.88;10.77;;;9.60;99.90;;;;;;4914355;29;20039;-82
2023/10/31 02:54:34;;;;;;;51.67;15.23;;;9.60;99.90;;;;;;4902501;29;20104;-82
2023/10/31 02:56:59;;;;;;;28.13;13.48;;;9.60;99.90;;;;;;4904297;29;20040;-82
2023/10/31 02:59:25;;;;;;;54.92;17.00;;;9.60;99.90;;;;;;4903453;29;20408;-82
2023/10/31 03:01:52;;;;;;;59.78;17.80;;;9.60;99.90;;;;;;4896392;29;20043;-82
2023/10/31 03:04:18;;;;;;;50.42;14.75;;;9.70;99.90;;;;;;4886311;29;20502;-82
2023/10/31 03:06:43;;;;;;;52.30;16.70;;;9.70;99.90;;;;;;4879100;29;20036;-83
2023/10/31 03:09:09;;;;;;;38.95;16.58;;;9.70;99.90;;;;;;4891807;29;20044;-82
2023/10/31 03:11:35;;;;;;;65.35;18.65;;;9.80;99.90;;;;;;4892951;29;20037;-82
2023/10/31 03:14:01;;;;;;;62.88;20.70;;;9.80;99.90;;;;;;4906384;29;20072;-82
2023/10/31 03:16:26;;;;;;;67.00;19.92;;;9.80;99.90;;;;;;4898627;29;20048;-82
2023/10/31 03:18:52;;;;;;;64.22;20.05;;;9.80;99.90;;;;;;4896166;29;20041;-82
2023/10/31 03:21:18;;;;;;;72.30;19.80;;;9.80;99.90;;;;;;4903416;29;20036;-82
2023/10/31 03:23:48;;;;;;;71.10;20.55;;;9.80;99.90;;;;;;4903317;29;20036;-82
2023/10/31 03:26:14;;;;;;;75.47;20.15;;;9.80;99.90;;;;;;4905924;29;20044;-83
2023/10/31 03:28:40;;;;;;;58.85;18.75;;;9.80;99.90;;;;;;4906839;29;20427;-82
2023/10/31 03:31:09;;;;;;;45.92;15.10;;;9.80;99.90;;;;;;4973955;23;20047;-82
2023/10/31 03:33:44;;;;;;;42.00;13.95;;;9.80;99.90;;;;;;4900951;29;20039;-82
2023/10/31 03:36:10;;;;;;;39.58;13.48;;;9.80;99.90;;;;;;4914006;29;20043;-82
2023/10/31 03:38:36;;;;;;;29.17;11.27;;;9.80;99.90;;;;;;4913781;29;20103;-82
2023/10/31 03:41:02;;;;;;;34.50;10.80;;;9.80;99.90;;;;;;4908962;29;20410;-82
2023/10/31 03:43:27;;;;;;;39.42;12.30;;;9.80;99.90;;;;;;4935616;29;20490;-81
2023/10/31 03:46:05;;;;;;;26.63;8.82;;;9.80;99.90;;;;;;4918505;29;20042;-82
2023/10/31 03:48:33;;;;;;;23.00;8.88;;;9.80;99.90;;;;;;4926534;29;20135;-82
2023/10/31 03:51:02;;;;;;;19.95;8.70;;;9.80;99.90;;;;;;4901174;29;20040;-82
2023/10/31 03:53:27;;;;;;;12.60;7.07;;;9.70;99.90;;;;;;4892003;29;20054;-82
2023/10/31 03:55:58;;;;;;;34.17;11.13;;;9.70;99.90;;;;;;4920417;29;20409;-82
2023/10/31 03:58:24;;;;;;;39.05;12.43;;;9.70;99.90;;;;;;4936034;29;20044;-81
2023/10/31 04:00:49;;;;;;;25.40;8.57;;;9.70;99.90;;;;;;4922907;29;20123;-82
2023/10/31 04:03:15;;;;;;;25.48;10.10;;;9.70;99.90;;;;;;4911220;29;20036;-82
2023/10/31 04:05:44;;;;;;;26.73;9.75;;;9.70;99.90;;;;;;4898976;29;20541;-82
2023/10/31 04:08:10;;;;;;;31.63;11.20;;;9.70;99.90;;;;;;4889352;29;20130;-82
2023/10/31 04:10:38;;;;;;;44.40;13.77;;;9.70;99.90;;;;;;4901365;29;20048;-82
2023/10/31 04:13:03;;;;;;;46.60;13.35;;;9.60;99.90;;;;;;4904069;29;20031;-82
2023/10/31 04:15:34;;;;;;;53.00;15.30;;;9.70;99.90;;;;;;4902666;29;20044;-82
2023/10/31 04:18:03;;;;;;;32.80;11.90;;;9.70;99.90;;;;;;4918403;29;20064;-82
2023/10/31 04:20:28;;;;;;;54.90;14.88;;;9.70;99.90;;;;;;4924376;29;20043;-82
2023/10/31 04:22:54;;;;;;;30.25;11.75;;;9.60;99.90;;;;;;4927802;29;20044;-82
2023/10/31 04:25:19;;;;;;;41.80;13.93;;;9.70;99.90;;;;;;4896143;29;20048;-82
2023/10/31 04:27:45;;;;;;;78.45;17.88;;;9.70;99.90;;;;;;4918200;29;20530;-82
2023/10/31 04:30:11;;;;;;;47.67;14.68;;;9.60;99.90;;;;;;4933799;29;20048;-82
2023/10/31 04:32:37;;;;;;;26.35;11.27;;;9.70;99.90;;;;;;4916212;29;20114;-82
2023/10/31 04:35:11;;;;;;;45.20;12.77;;;9.70;99.90;;;;;;4927960;29;20109;-82
2023/10/31 04:37:43;;;;;;;47.53;12.43;;;9.70;99.90;;;;;;4899580;29;20044;-82
2023/10/31 04:40:10;;;;;;;20.75;7.70;;;9.60;99.90;;;;;;4902841;29;20071;-82
2023/10/31 04:42:35;;;;;;;47.75;11.50;;;9.60;99.90;;;;;;4909176;29;20039;-82
2023/10/31 04:45:04;;;;;;;48.30;9.98;;;9.60;99.90;;;;;;4918520;29;20048;-82
2023/10/31 04:47:30;;;;;;;41.55;9.50;;;9.60;99.90;;;;;;4930676;29;20048;-81
2023/10/31 04:49:55;;;;;;;43.67;10.18;;;9.60;99.90;;;;;;4931741;29;20040;-82
2023/10/31 04:52:22;;;;;;;32.40;8.50;;;9.60;99.90;;;;;;4907081;29;20130;-82
2023/10/31 04:54:48;;;;;;;41.42;10.60;;;9.60;99.90;;;;;;4918879;29;20107;-82
2023/10/31 04:57:13;;;;;;;43.83;11.52;;;9.60;99.90;;;;;;4918822;29;20522;-82
2023/10/31 04:59:39;;;;;;;59.88;13.82;;;9.60;99.90;;;;;;4918752;29;20036;-82
2023/10/31 05:02:04;;;;;;;53.33;13.25;;;9.60;99.90;;;;;;4914213;29;20519;-81
2023/10/31 05:04:30;;;;;;;43.72;12.50;;;9.60;99.90;;;;;;4925370;29;20119;-82
2023/10/31 05:06:55;;;;;;;42.08;10.82;;;9.60;99.90;;;;;;4902872;29;20040;-82
2023/10/31 05:09:23;;;;;;;42.20;11.65;;;9.60;99.90;;;;;;4934470;29;20047;-82
2023/10/31 05:11:49;;;;;;;41.63;9.68;;;9.60;99.90;;;;;;4908744;29;20031;-82
2023/10/31 05:14:14;;;;;;;43.80;10.65;;;9.60;99.90;;;;;;4905438;29;20036;-81
2023/10/31 05:16:41;;;;;;;30.08;6.72;;;9.60;99.90;;;;;;4932537;29;20040;-82
2023/10/31 05:19:07;;;;;;;29.90;7.18;;;9.60;99.90;;;;;;4902372;29;20411;-82
2023/10/31 05:21:32;;;;;;;29.52;7.75;;;9.60;99.90;;;;;;4940422;29;20036;-81
2023/10/31 05:23:58;;;;;;;29.83;7.30;;;9.60;99.90;;;;;;4898095;29;20035;-82
2023/10/31 05:26:23;;;;;;;32.70;8.98;;;9.60;99.90;;;;;;4923649;29;20072;-81
2023/10/31 05:28:49;;;;;;;31.40;8.68;;;9.60;99.90;;;;;;4921729;29;20047;-82
2023/10/31 05:31:17;;;;;;;33.78;8.82;;;9.60;99.90;;;;;;4913834;29;20161;-81
2023/10/31 05:33:43;;;;;;;33.67;9.10;;;9.60;99.90;;;;;;4913835;29;20131;-81
2023/10/31 05:36:19;;;;;;;27.90;8.73;;;9.60;99.90;;;;;;4900094;29;20085;-81
2023/10/31 05:38:45;;;;;;;16.92;6.60;;;9.70;99.90;;;;;;4900003;29;20049;-81
2023/10/31 05:41:11;;;;;;;36.38;11.15;;;9.70;99.90;;;;;;4910780;29;20396;-81
2023/10/31 05:43:36;;;;;;;24.35;10.27;;;9.70;99.90;;;;;;4899656;29;20076;-81
2023/10/31 05:46:02;;;;;;;42.05;12.73;;;9.70;99.90;;;;;;4927772;29;20047;-81
2023/10/31 05:48:27;;;;;;;39.72;13.55;;;9.70;99.90;;;;;;4926984;29;20044;-81
2023/10/31 05:50:53;;;;;;;37.03;13.60;;;9.70;99.90;;;;;;4919441;29;20043;-81
2023/10/31 05:53:18;;;;;;;31.80;12.30;;;9.60;99.90;;;;;;4918498;29;20078;-81
2023/10/31 05:55:44;;;;;;;37.97;12.60;;;9.60;99.90;;;;;;4919072;29;20164;-81
2023/10/31 05:58:09;;;;;;;29.38;10.15;;;9.60;99.90;;;;;;4903221;29;20052;-81
2023/10/31 06:00:36;;;;;;;43.00;11.88;;;9.60;99.90;;;;;;4917210;29;20036;-81
2023/10/31 06:03:02;;;;;;;32.35;11.20;;;9.60;99.90;;;;;;4918092;29;20079;-81
2023/10/31 06:05:27;;;;;;;31.98;10.98;;;9.60;99.90;;;;;;4919408;29;20036;-81
2023/10/31 06:07:53;;;;;;;31.73;11.05;;;9.60;99.90;;;;;;4919444;29;20040;-81
2023/10/31 06:10:19;;;;;;;23.65;9.35;;;9.60;99.90;;;;;;4914403;29;20095;-81
2023/10/31 06:12:44;;;;;;;34.70;11.43;;;9.60;99.90;;;;;;4906321;29;20427;-81
2023/10/31 06:15:10;;;;;;;22.42;7.88;;;9.60;99.90;;;;;;4918031;29;20045;-81
2023/10/31 06:17:35;;;;;;;25.05;7.55;;;9.60;99.90;;;;;;4885588;29;20136;-81
2023/10/31 06:20:01;;;;;;;30.13;8.32;;;9.60;99.90;;;;;;4904067;29;20044;-81
2023/10/31 06:22:27;;;;;;;17.52;6.75;;;9.60;99.90;;;;;;4930552;29;20044;-81
2023/10/31 06:24:53;;;;;;;25.48;8.30;;;9.60;99.90;;;;;;4929239;29;20513;-81
2023/10/31 06:27:18;;;;;;;31.30;9.82;;;9.60;99.90;;;;;;4936165;29;20099;-81
2023/10/31 06:29:44;;;;;;;34.65;10.57;;;9.60;99.90;;;;;;4936589;29;20039;-81
2023/10/31 06:32:10;;;;;;;33.92;10.85;;;9.60;99.90;;;;;;4936034;29;20182;-81
2023/10/31 06:34:35;;;;;;;33.05;10.50;;;9.60;99.90;;;;;;4929706;29;20092;-81
2023/10/31 06:37:01;;;;;;;29.83;9.48;;;9.60;99.90;;;;;;4938198;29;20072;-81
2023/10/31 06:39:26;;;;;;;33.72;9.52;;;9.60;99.90;;;;;;4903156;29;20040;-81
2023/10/31 06:41:55;;;;;;;42.72;10.50;;;9.60;99.90;;;;;;4913149;29;20047;-81
2023/10/31 06:44:21;;;;;;;40.78;10.40;;;9.60;99.90;;;;;;4945853;28;20040;-81
2023/10/31 06:46:46;;;;;;;28.27;9.55;;;9.70;99.90;;;;;;4917249;29;20083;-81
2023/10/31 06:49:12;;;;;;;20.45;8.23;;;9.60;99.90;;;;;;4904405;29;20048;-81
2023/10/31 06:51:38;;;;;;;43.40;11.95;;;9.70;99.90;;;;;;4924744;29;21033;-81
2023/10/31 06:54:04;;;;;;;38.83;11.18;;;9.70;99.90;;;;;;4912710;29;20095;-81
2023/10/31 06:56:29;;;;;;;28.20;10.45;;;9.70;99.90;;;;;;4925671;29;20444;-81
2023/10/31 06:58:55;;;;;;;24.50;9.10;;;9.70;99.90;;;;;;4935585;29;20066;-81
2023/10/31 07:01:20;;;;;;;37.42;11.60;;;9.70;99.90;;;;;;4908650;29;20615;-81
2023/10/31 07:03:47;;;;;;;26.65;9.73;;;9.70;99.90;;;;;;4927688;29;20040;-81
2023/10/31 07:06:12;;;;;;;44.92;12.73;;;9.70;99.90;;;;;;4927425;29;20089;-81
2023/10/31 07:08:38;;;;;;;43.63;12.05;;;9.80;99.90;;;;;;4933422;29;20400;-82
2023/10/31 07:11:03;;;;;;;44.13;11.43;;;9.80;99.90;;;;;;4906656;29;20515;-81
2023/10/31 07:13:30;;;;;;;27.83;9.85;;;9.80;99.90;;;;;;4901656;29;20451;-82
2023/10/31 07:15:56;;;;;;;42.10;11.13;;;9.90;99.90;;;;;;4904945;29;20040;-81
2023/10/31 07:18:21;;;;;;;33.80;9.82;;;9.90;99.90;;;;;;4932776;29;20047;-81
2023/10/31 07:20:47;;;;;;;34.08;9.27;;;10.00;99.90;;;;;;4908161;29;20039;-81
2023/10/31 07:23:13;;;;;;;23.65;8.90;;;10.00;99.90;;;;;;4925140;29;20131;-82
2023/10/31 07:25:38;;;;;;;28.83;9.10;;;10.00;99.90;;;;;;4909446;29;20391;-81
2023/10/31 07:28:04;;;;;;;48.33;11.23;;;10.10;99.90;;;;;;4922870;29;20176;-82
2023/10/31 07:30:30;;;;;;;48.95;12.32;;;10.10;99.90;;;;;;4914132;29;20519;-81
2023/10/31 07:32:55;;;;;;;49.97;13.00;;;10.10;99.90;;;;;;4930854;29;20055;-82
2023/10/31 07:35:21;;;;;;;60.60;14.23;;;10.10;99.90;;;;;;4926035;29;20074;-81
2023/10/31 07:37:46;;;;;;;46.97;12.95;;;10.20;99.90;;;;;;4953514;28;20507;-82
2023/10/31 07:40:12;;;;;;;40.85;13.13;;;10.20;99.90;;;;;;4925220;29;20116;-83
2023/10/31 07:42:37;;;;;;;27.38;11.73;;;10.20;99.90;;;;;;4922401;29;20036;-81
2023/10/31 07:45:04;;;;;;;42.13;14.30;;;10.30;99.90;;;;;;4912879;29;20052;-83
2023/10/31 07:47:29;;;;;;;39.78;15.18;;;10.30;99.90;;;;;;4913582;29;20040;-84
2023/10/31 07:49:55;;;;;;;44.15;16.73;;;10.30;99.90;;;;;;4907208;29;20558;-82
2023/10/31 07:52:20;;;;;;;24.63;13.57;;;10.40;99.90;;;;;;4937474;29;20507;-82
2023/10/31 07:54:46;;;;;;;23.52;13.68;;;10.40;99.90;;;;;;4924592;29;20044;-82
2023/10/31 07:57:11;;;;;;;61.63;18.33;;;10.40;99.90;;;;;;4924923;29;20083;-82
2023/10/31 07:59:37;;;;;;;46.05;16.55;;;10.50;99.90;;;;;;4905541;29;20051;-83
2023/10/31 08:02:03;;;;;;;44.95;15.05;;;10.50;99.90;;;;;;4925019;29;20486;-84
2023/10/31 08:04:29;;;;;;;46.80;15.30;;;10.60;99.90;;;;;;4937518;29;20068;-82
2023/10/31 08:06:55;;;;;;;42.53;14.18;;;10.60;99.90;;;;;;4917770;29;20100;-82
2023/10/31 08:09:21;;;;;;;31.13;11.27;;;10.70;99.90;;;;;;4932609;29;20044;-82
2023/10/31 08:11:46;;;;;;;39.13;12.05;;;10.70;99.90;;;;;;4928082;29;20048;-82
2023/10/31 08:14:12;;;;;;;39.40;11.82;;;10.80;99.90;;;;;;4904694;29;20498;-81
2023/10/31 08:16:37;;;;;;;35.28;10.85;;;10.90;99.90;;;;;;4927595;29;20474;-82
2023/10/31 08:19:04;;;;;;;26.25;8.88;;;10.90;99.90;;;;;;4921826;29;20044;-81
2023/10/31 08:21:33;;;;;;;23.58;8.07;;;10.90;99.90;;;;;;4923002;29;20032;-81
2023/10/31 08:24:00;;;;;;;34.40;9.98;;;11.00;99.90;;;;;;4940610;29;20054;-81
2023/10/31 08:26:25;;;;;;;34.83;10.05;;;11.00;99.90;;;;;;4917766;29;20044;-81
2023/10/31 08:28:51;;;;;;;29.30;9.38;;;10.90;99.90;;;;;;4936194;29;20051;-81
2023/10/31 08:31:17;;;;;;;33.80;10.38;;;10.90;99.90;;;;;;4918222;29;20044;-81
2023/10/31 08:33:42;;;;;;;46.20;12.85;;;10.90;99.90;;;;;;4916573;29;20514;-81
2023/10/31 08:36:08;;;;;;;26.20;9.55;;;11.00;99.90;;;;;;4915815;29;20083;-81
2023/10/31 08:38:34;;;;;;;56.25;15.80;;;10.80;99.90;;;;;;4916280;29;20042;-82
2023/10/31 08:41:00;;;;;;;38.63;13.95;;;10.80;99.90;;;;;;4920962;29;20087;-83
2023/10/31 08:43:26;;;;;;;47.53;15.77;;;10.80;99.90;;;;;;4911310;29;20047;-83
2023/10/31 08:45:51;;;;;;;51.33;16.13;;;10.90;99.90;;;;;;4919377;29;20044;-82
2023/10/31 08:48:17;;;;;;;40.88;12.98;;;11.10;99.90;;;;;;4917713;29;20503;-81
2023/10/31 08:50:43;;;;;;;17.65;9.35;;;11.20;99.90;;;;;;4917979;29;20048;-83
2023/10/31 08:53:09;;;;;;;32.05;11.93;;;11.20;99.90;;;;;;4920456;29;20044;-81
2023/10/31 08:55:34;;;;;;;39.78;14.45;;;11.10;99.90;;;;;;4918110;29;20455;-80
2023/10/31 08:58:00;;;;;;;54.90;15.02;;;11.20;99.90;;;;;;4904954;29;20104;-81
2023/10/31 09:00:28;;;;;;;25.63;10.88;;;11.20;99.90;;;;;;4908517;29;20514;-79
2023/10/31 09:02:53;;;;;;;18.27;8.43;;;11.30;99.90;;;;;;4922504;29;20040;-79
2023/10/31 09:05:19;;;;;;;25.42;9.15;;;11.30;99.90;;;;;;4915338;29;20044;-79
2023/10/31 09:07:45;;;;;;;29.15;9.18;;;11.20;99.90;;;;;;4916441;29;20059;-78
2023/10/31 09:10:12;;;;;;;22.80;8.23;;;11.20;99.90;;;;;;4927178;29;20052;-80
2023/10/31 09:12:38;;;;;;;17.58;6.47;;;11.20;99.90;;;;;;4924260;29;20477;-81
2023/10/31 09:15:04;;;;;;;16.17;4.60;;;11.30;99.90;;;;;;4915764;29;20126;-80
2023/10/31 09:17:30;;;;;;;11.70;3.13;;;11.40;99.90;;;;;;4897911;29;20128;-80
2023/10/31 09:19:55;;;;;;;9.77;2.75;;;11.30;99.90;;;;;;4904608;29;20095;-81
2023/10/31 09:22:21;;;;;;;14.63;3.30;;;11.30;99.90;;;;;;4925473;29;20051;-82
2023/10/31 09:24:46;;;;;;;13.90;2.47;;;11.30;99.90;;;;;;4921972;29;20032;-80
2023/10/31 09:27:12;;;;;;;11.98;2.08;;;11.40;99.90;;;;;;4927057;29;20044;-80
2023/10/31 09:29:38;;;;;;;17.80;2.72;;;11.40;99.90;;;;;;4914956;29;20518;-80
2023/10/31 09:42:25;;;;;;;6.40;1.20;;;13.50;99.90;;;;;;5169450;23;20048;-80
2023/10/31 09:44:51;;;;;;;7.00;0.80;;;13.50;99.90;;;;;;4903110;29;20504;-80
2023/10/31 09:47:16;;;;;;;7.05;1.27;;;13.60;99.90;;;;;;4904106;29;20495;-80
2023/10/31 09:49:44;;;;;;;5.30;0.90;;;13.80;99.90;;;;;;4920058;29;20040;-79
2023/10/31 09:52:10;;;;;;;5.43;1.33;;;14.00;99.90;;;;;;4904931;29;20039;-79
2023/10/31 09:54:38;;;;;;;2.95;0.73;;;14.10;99.90;;;;;;4920413;29;20076;-79
2023/10/31 09:57:04;;;;;;;8.13;0.80;;;14.20;99.90;;;;;;4917984;29;20040;-79
2023/10/31 09:59:29;;;;;;;8.00;1.08;;;14.10;99.90;;;;;;4912194;29;20063;-79
2023/10/31 10:01:56;;;;;;;6.65;0.60;;;13.80;99.90;;;;;;4939320;29;20437;-79
2023/10/31 10:04:21;;;;;;;3.95;0.68;;;13.70;99.90;;;;;;4938358;29;20494;-79
2023/10/31 10:07:03;;;;;;;6.20;0.73;;;13.90;99.90;;;;;;4924367;29;20082;-79
2023/10/31 10:09:29;;;;;;;5.38;0.80;;;13.80;99.90;;;;;;4940040;29;20047;-79
2023/10/31 10:11:56;;;;;;;6.38;0.70;;;13.90;99.90;;;;;;4940253;29;20043;-79
2023/10/31 10:14:28;;;;;;;7.18;0.95;;;14.20;99.90;;;;;;4930756;29;20542;-79
2023/10/31 10:16:55;;;;;;;4.55;0.80;;;14.80;99.90;;;;;;4940681;29;20047;-79
2023/10/31 10:19:22;;;;;;;6.13;0.70;;;15.60;99.90;;;;;;4939838;29;20044;-79
2023/10/31 10:21:52;;;;;;;4.47;0.80;;;15.80;99.90;;;;;;4924106;29;20087;-79
2023/10/31 10:24:18;;;;;;;4.20;0.70;;;15.50;99.90;;;;;;4907711;29;20040;-79
2023/10/31 10:26:44;;;;;;;3.60;0.80;;;15.10;99.90;;;;;;4900720;29;20033;-79
2023/10/31 10:29:10;;;;;;;4.15;0.90;;;14.80;99.90;;;;;;4900707;29;20564;-79
2023/10/31 10:31:35;;;;;;;4.35;0.80;;;14.60;99.90;;;;;;4900982;29;20052;-79
2023/10/31 10:34:03;;;;;;;5.78;0.60;;;14.30;99.90;;;;;;4883680;29;20103;-79
2023/10/31 10:36:32;;;;;;;5.60;0.50;;;14.00;99.90;;;;;;4897831;29;20051;-79
2023/10/31 10:38:59;;;;;;;5.07;0.73;;;13.90;99.90;;;;;;4923685;29;20376;-79
2023/10/31 10:41:28;;;;;;;6.80;0.90;;;13.70;99.90;;;;;;4916046;29;20040;-78
2023/10/31 10:44:03;;;;;;;5.38;0.68;;;13.50;99.90;;;;;;4915973;29;20083;-78
2023/10/31 10:46:31;;;;;;;7.13;1.00;;;13.40;99.90;;;;;;4915870;29;20048;-78
2023/10/31 10:48:59;;;;;;;4.82;0.88;;;13.30;99.90;;;;;;4920047;29;20130;-78
2023/10/31 10:51:31;;;;;;;4.20;0.63;;;13.30;99.90;;;;;;4925579;29;20043;-78
2023/10/31 10:54:08;;;;;;;6.07;0.70;;;13.30;99.90;;;;;;4913338;29;20039;-79
2023/10/31 10:56:38;;;;;;;3.13;0.70;;;13.20;99.90;;;;;;4935211;29;20094;-78
2023/10/31 10:59:14;;;;;;;3.78;0.65;;;12.90;99.90;;;;;;4934965;29;20055;-79
2023/10/31 11:01:41;;;;;;;6.10;1.00;;;12.80;99.90;;;;;;4918563;29;20043;-78
2023/10/31 11:04:07;;;;;;;6.05;0.70;;;12.70;99.90;;;;;;4909169;29;20100;-77
2023/10/31 11:06:35;;;;;;;6.07;0.80;;;12.70;99.90;;;;;;4930701;29;20040;-78
2023/10/31 11:09:00;;;;;;;4.32;0.70;;;12.80;99.90;;;;;;4915993;29;20103;-78
2023/10/31 11:11:27;;;;;;;5.78;1.20;;;12.80;99.90;;;;;;4899532;29;20048;-78
2023/10/31 11:13:56;;;;;;;3.63;0.60;;;13.20;99.90;;;;;;4915442;29;20503;-78
2023/10/31 11:16:55;;;;;;;2.85;0.50;;;13.50;99.90;;;;;;4914203;29;20462;-78
2023/10/31 11:19:24;;;;;;;6.20;0.70;;;14.20;99.90;;;;;;4873818;29;20055;-79
2023/10/31 11:21:59;;;;;;;4.63;0.70;;;14.80;99.90;;;;;;4917773;29;20046;-78
2023/10/31 11:24:37;;;;;;;3.88;0.60;;;14.80;99.90;;;;;;4911197;29;20099;-78
2023/10/31 11:27:05;;;;;;;4.03;0.60;;;14.30;99.90;;;;;;4921510;29;20043;-77
2023/10/31 11:29:32;;;;;;;4.75;0.80;;;13.90;99.90;;;;;;4896525;29;20036;-78
2023/10/31 11:31:58;;;;;;;3.90;0.80;;;13.50;99.90;;;;;;4922541;29;20123;-79
2023/10/31 11:34:29;;;;;;;2.08;0.60;;;13.10;99.90;;;;;;4917316;29;20040;-79
2023/10/31 11:37:24;;;;;;;3.97;1.08;;;13.20;99.90;;;;;;4899013;29;20044;-79
2023/10/31 11:40:15;;;;;;;2.88;0.68;;;13.30;99.90;;;;;;4914434;29;20047;-79
2023/10/31 11:42:41;;;;;;;4.03;0.60;;;13.50;99.90;;;;;;4921693;29;20035;-79
2023/10/31 11:45:10;;;;;;;5.43;0.60;;;14.20;99.90;;;;;;4911502;29;20127;-77
2023/10/31 11:47:46;;;;;;;3.30;0.60;;;14.60;99.90;;;;;;4921820;29;20044;-77
2023/10/31 11:50:12;;;;;;;4.07;0.65;;;14.80;99.90;;;;;;4924637;29;20044;-77
2023/10/31 11:52:38;;;;;;;3.08;0.40;;;14.70;99.90;;;;;;4925505;29;20066;-77
2023/10/31 11:55:09;;;;;;;4.10;0.50;;;14.40;99.90;;;;;;4925909;29;20087;-77
2023/10/31 11:57:34;;;;;;;6.35;0.90;;;14.30;99.90;;;;;;4898491;29;20040;-77
2023/10/31 12:00:00;;;;;;;3.00;0.50;;;14.50;99.90;;;;;;4921004;29;20044;-77
2023/10/31 12:02:25;;;;;;;2.08;0.50;;;14.80;99.90;;;;;;4944427;29;20039;-77
2023/10/31 12:04:51;;;;;;;3.10;0.60;;;15.00;99.90;;;;;;4933178;29;20514;-77
2023/10/31 12:07:18;;;;;;;2.75;0.60;;;15.40;99.90;;;;;;4923249;29;20041;-77
2023/10/31 12:09:48;;;;;;;4.55;0.80;;;15.90;99.90;;;;;;4913913;29;20036;-77
2023/10/31 12:12:14;;;;;;;3.00;0.60;;;16.30;99.90;;;;;;4922522;29;20036;-77
2023/10/31 12:14:40;;;;;;;5.80;0.85;;;16.80;99.90;;;;;;4923995;29;20063;-77
2023/10/31 12:17:09;;;;;;;3.00;0.60;;;17.10;99.90;;;;;;4925568;29;20040;-77
2023/10/31 12:19:36;;;;;;;3.88;0.43;;;17.60;99.90;;;;;;4912074;29;20243;-78
2023/10/31 12:22:02;;;;;;;3.58;0.60;;;18.20;99.90;;;;;;4896658;29;20127;-77
2023/10/31 12:24:28;;;;;;;2.58;0.40;;;18.40;99.90;;;;;;4913740;29;20040;-77
2023/10/31 12:26:54;;;;;;;1.85;0.35;;;18.20;99.90;;;;;;4923632;29;20044;-77
2023/10/31 12:29:21;;;;;;;1.83;0.30;;;17.80;99.90;;;;;;4928169;29;20039;-77
2023/10/31 12:31:49;;;;;;;1.83;0.35;;;17.50;99.90;;;;;;4920685;29;20126;-77
2023/10/31 12:34:15;;;;;;;2.60;0.30;;;17.20;99.90;;;;;;4929238;29;20131;-77
2023/10/31 12:36:42;;;;;;;2.15;0.30;;;16.80;99.90;;;;;;4932939;29;20071;-77
2023/10/31 12:39:11;;;;;;;2.38;0.40;;;16.30;99.90;;;;;;4930261;29;20063;-76
2023/10/31 12:41:37;;;;;;;3.58;0.50;;;16.10;99.90;;;;;;4925260;29;20044;-77
2023/10/31 12:44:04;;;;;;;3.13;0.52;;;15.90;99.90;;;;;;4918529;29;20048;-77
2023/10/31 12:46:31;;;;;;;3.22;0.45;;;16.00;99.90;;;;;;4920154;29;20056;-76
2023/10/31 12:49:00;;;;;;;1.95;0.40;;;16.10;99.90;;;;;;4914356;29;20083;-77